Time;durP1;ratioP1;P1;durP2;ratioP2;P2;SDS_P1;SDS_P2;PMS_P1;PMS_P2;Temp;Humidity;BMP_temperature;BMP_pressure;BME280_temperature;BME280_humidity;BME280_pressure;Samples;Min_cycle;Max_cycle;Signal;HPM_P1;HPM_P2
2021/12/28 04:53:28;;;;;;;14.40;2.80;;;7.30;99.90;;;;;;5468853;23;20503;-76
2021/12/28 04:55:55;;;;;;;9.53;2.50;;;7.30;99.90;;;;;;4964449;28;20937;-76
2021/12/28 04:58:23;;;;;;;8.90;2.87;;;7.40;99.90;;;;;;4966659;28;20991;-77
2021/12/28 05:00:51;;;;;;;10.63;2.53;;;7.40;99.90;;;;;;4970006;28;20475;-76
2021/12/28 05:03:19;;;;;;;7.90;2.80;;;7.40;99.90;;;;;;4975374;28;20559;-76
2021/12/28 05:05:50;;;;;;;14.10;2.47;;;7.40;99.90;;;;;;4976949;28;20538;-76
2021/12/28 05:08:20;;;;;;;8.27;2.80;;;7.40;99.90;;;;;;4976832;28;20502;-76
2021/12/28 05:10:49;;;;;;;16.83;3.30;;;7.50;99.90;;;;;;4976933;28;20455;-76
2021/12/28 05:13:17;;;;;;;8.30;2.90;;;7.50;99.90;;;;;;4976649;28;20884;-76
2021/12/28 05:15:45;;;;;;;15.17;2.97;;;7.40;99.90;;;;;;4976822;28;20514;-76
2021/12/28 05:18:13;;;;;;;12.17;3.17;;;7.50;99.90;;;;;;4976797;28;20454;-76
2021/12/28 05:20:41;;;;;;;15.83;3.70;;;7.50;99.90;;;;;;4976755;28;20442;-76
2021/12/28 05:23:08;;;;;;;12.73;3.00;;;7.50;99.90;;;;;;4976562;28;20563;-76
2021/12/28 05:25:35;;;;;;;9.67;2.40;;;7.50;99.90;;;;;;4976602;28;20462;-76
2021/12/28 05:28:05;;;;;;;13.50;2.47;;;7.50;99.90;;;;;;4976707;28;20578;-76
2021/12/28 05:30:33;;;;;;;4.70;2.10;;;7.50;99.90;;;;;;4976374;28;20547;-76
2021/12/28 05:33:00;;;;;;;11.37;2.50;;;7.50;99.90;;;;;;4976368;28;20562;-76
2021/12/28 05:35:27;;;;;;;6.13;2.10;;;7.60;99.90;;;;;;4976582;28;20551;-76
2021/12/28 05:37:54;;;;;;;7.33;2.63;;;7.50;99.90;;;;;;4976604;28;20531;-76
2021/12/28 05:40:21;;;;;;;6.03;2.33;;;7.60;99.90;;;;;;4976260;28;20540;-76
2021/12/28 05:42:48;;;;;;;6.47;2.20;;;7.60;99.90;;;;;;4976306;28;20559;-76
2021/12/28 05:45:16;;;;;;;6.90;2.53;;;7.60;99.90;;;;;;4976301;28;20538;-76
2021/12/28 05:47:43;;;;;;;5.63;2.37;;;7.60;99.90;;;;;;4975988;28;21007;-74
2021/12/28 05:50:11;;;;;;;5.37;2.43;;;7.70;99.90;;;;;;4976021;28;20444;-72
2021/12/28 05:52:38;;;;;;;10.80;2.67;;;7.70;99.90;;;;;;4975983;28;20563;-73
2021/12/28 05:55:07;;;;;;;8.93;2.20;;;7.60;99.90;;;;;;4976053;28;20452;-72
2021/12/28 05:57:34;;;;;;;5.00;2.47;;;7.60;99.90;;;;;;4976437;28;20530;-72
2021/12/28 06:00:01;;;;;;;5.40;2.70;;;7.60;99.90;;;;;;4975775;28;20538;-70
2021/12/28 06:02:29;;;;;;;9.23;2.77;;;7.70;99.90;;;;;;4975609;28;20558;-73
2021/12/28 06:04:56;;;;;;;7.37;2.80;;;7.70;99.90;;;;;;4975795;28;20912;-73
2021/12/28 06:07:27;;;;;;;5.40;2.93;;;7.70;99.90;;;;;;4975912;28;20539;-73
2021/12/28 06:09:56;;;;;;;4.63;3.10;;;7.80;99.90;;;;;;4975650;28;20554;-73
2021/12/28 06:12:22;;;;;;;7.30;2.50;;;7.80;99.90;;;;;;4975636;28;20451;-73
2021/12/28 06:14:49;;;;;;;13.40;2.83;;;7.80;99.90;;;;;;4974914;28;20444;-73
2021/12/28 06:17:16;;;;;;;5.97;2.80;;;7.80;99.90;;;;;;4975566;28;20486;-73
2021/12/28 06:19:45;;;;;;;5.90;2.50;;;7.80;99.90;;;;;;4975428;28;20547;-73
2021/12/28 06:22:12;;;;;;;15.27;3.20;;;7.80;99.90;;;;;;4975608;28;20450;-73
2021/12/28 06:24:39;;;;;;;7.90;2.90;;;7.80;99.90;;;;;;4975564;28;20447;-73
2021/12/28 06:27:06;;;;;;;4.57;2.43;;;7.80;99.90;;;;;;4975439;28;20455;-73
2021/12/28 06:29:33;;;;;;;8.23;2.63;;;7.80;99.90;;;;;;4974893;28;21019;-73
2021/12/28 06:32:00;;;;;;;7.33;2.60;;;7.80;99.90;;;;;;4975389;28;20956;-74
2021/12/28 06:34:27;;;;;;;6.07;2.47;;;7.80;99.90;;;;;;4975377;28;20567;-74
2021/12/28 06:36:55;;;;;;;5.73;3.70;;;7.80;99.90;;;;;;4975382;28;20546;-74
2021/12/28 06:39:22;;;;;;;4.70;2.50;;;7.90;99.90;;;;;;4974995;28;20531;-74
2021/12/28 06:41:48;;;;;;;8.00;2.97;;;7.80;99.90;;;;;;4975309;28;20479;-74
2021/12/28 06:44:15;;;;;;;5.33;2.87;;;7.80;99.90;;;;;;4974961;28;20562;-74
2021/12/28 06:46:42;;;;;;;4.63;2.50;;;7.80;99.90;;;;;;4975349;28;20542;-73
2021/12/28 06:49:10;;;;;;;6.20;2.90;;;7.80;99.90;;;;;;4974683;28;20582;-73
2021/12/28 06:51:36;;;;;;;6.53;2.73;;;7.80;99.90;;;;;;4975027;28;20956;-73
2021/12/28 06:54:05;;;;;;;6.23;2.27;;;7.90;99.90;;;;;;4974869;28;20570;-74
2021/12/28 06:56:32;;;;;;;5.13;2.67;;;7.90;99.90;;;;;;4974868;28;20455;-74
2021/12/28 06:58:59;;;;;;;6.00;3.17;;;7.90;99.90;;;;;;4974865;28;20452;-74
2021/12/28 07:01:26;;;;;;;4.40;2.47;;;7.90;99.90;;;;;;4974632;28;20458;-74
2021/12/28 07:03:53;;;;;;;5.80;2.90;;;8.00;99.90;;;;;;4974017;28;20554;-74
2021/12/28 07:06:23;;;;;;;5.53;3.40;;;8.00;99.90;;;;;;4973969;28;20443;-74
2021/12/28 07:08:50;;;;;;;6.77;3.30;;;8.00;99.90;;;;;;4972582;28;20580;-74
2021/12/28 07:11:19;;;;;;;8.20;3.33;;;8.00;99.90;;;;;;4973704;28;20482;-74
2021/12/28 07:13:46;;;;;;;8.70;3.13;;;8.00;99.90;;;;;;4974453;28;20558;-74
2021/12/28 07:16:14;;;;;;;5.20;3.53;;;8.00;99.90;;;;;;4974772;28;20460;-74
2021/12/28 07:18:41;;;;;;;9.03;3.50;;;8.00;99.90;;;;;;4974676;28;20479;-74
2021/12/28 07:21:07;;;;;;;5.50;4.10;;;8.10;99.90;;;;;;4974277;28;20455;-74
2021/12/28 07:23:34;;;;;;;5.60;2.80;;;8.10;99.90;;;;;;4974185;28;20508;-74
2021/12/28 07:26:02;;;;;;;5.80;3.07;;;8.10;99.90;;;;;;4974027;28;20543;-74
2021/12/28 07:28:30;;;;;;;5.10;2.53;;;8.10;99.90;;;;;;4973975;28;20483;-74
2021/12/28 07:30:57;;;;;;;3.90;2.40;;;8.10;99.90;;;;;;4973889;28;20499;-74
2021/12/28 07:33:24;;;;;;;4.00;3.20;;;8.10;99.90;;;;;;4974132;28;20554;-74
2021/12/28 07:35:51;;;;;;;3.93;2.70;;;8.10;99.90;;;;;;4974221;28;20538;-74
2021/12/28 07:38:18;;;;;;;3.47;2.20;;;8.10;99.90;;;;;;4973892;28;21003;-74
2021/12/28 07:40:45;;;;;;;3.73;2.60;;;8.10;99.90;;;;;;4973762;28;20550;-74
2021/12/28 07:43:13;;;;;;;4.20;2.07;;;8.10;99.90;;;;;;4973907;28;20476;-74
2021/12/28 07:45:41;;;;;;;3.03;2.53;;;8.10;99.90;;;;;;4974045;28;20531;-74
2021/12/28 07:48:08;;;;;;;4.33;2.13;;;8.20;99.90;;;;;;4973869;28;20951;-74
2021/12/28 07:50:35;;;;;;;2.10;1.80;;;8.20;99.90;;;;;;4973619;28;20650;-74
2021/12/28 07:53:02;;;;;;;3.03;2.10;;;8.20;99.90;;;;;;4973346;28;20566;-74
2021/12/28 07:55:29;;;;;;;2.23;2.00;;;8.20;99.90;;;;;;4973951;28;20554;-74
2021/12/28 07:57:56;;;;;;;2.20;2.00;;;8.30;99.90;;;;;;4973834;28;20462;-74
2021/12/28 08:00:24;;;;;;;2.27;1.87;;;8.30;99.90;;;;;;4973538;28;20539;-74
2021/12/28 08:02:53;;;;;;;2.43;1.60;;;8.30;99.90;;;;;;4973539;28;20527;-73
2021/12/28 08:05:20;;;;;;;2.23;1.40;;;8.40;99.90;;;;;;4973396;28;21071;-74
2021/12/28 08:07:47;;;;;;;2.30;1.30;;;8.40;99.90;;;;;;4973432;28;20452;-74
2021/12/28 08:10:16;;;;;;;1.30;1.20;;;8.40;99.90;;;;;;4973184;28;20582;-73
2021/12/28 08:12:43;;;;;;;3.87;1.60;;;8.50;99.90;;;;;;4973773;28;20503;-74
2021/12/28 08:15:11;;;;;;;1.73;1.30;;;8.50;99.90;;;;;;4973429;28;20547;-74
2021/12/28 08:17:38;;;;;;;4.23;1.60;;;8.60;99.90;;;;;;4973332;28;20865;-74
2021/12/28 08:20:08;;;;;;;1.10;1.00;;;8.60;99.90;;;;;;4973389;28;21001;-74
2021/12/28 08:22:36;;;;;;;1.47;1.33;;;8.60;99.90;;;;;;4973477;28;20504;-74
2021/12/28 08:25:04;;;;;;;2.20;1.07;;;8.60;99.90;;;;;;4973328;28;20530;-74
2021/12/28 08:27:31;;;;;;;3.17;1.37;;;8.70;99.90;;;;;;4973188;28;21027;-74
2021/12/28 08:29:57;;;;;;;0.90;0.90;;;8.70;99.90;;;;;;4972990;28;20497;-74
2021/12/28 08:32:25;;;;;;;5.13;1.30;;;8.70;99.90;;;;;;4972863;28;20539;-74
2021/12/28 08:34:51;;;;;;;1.20;1.10;;;8.80;99.90;;;;;;4973423;28;20440;-74
2021/12/28 08:37:20;;;;;;;0.97;0.97;;;8.80;99.90;;;;;;4972500;28;20898;-73
2021/12/28 08:39:47;;;;;;;1.50;1.10;;;8.90;99.90;;;;;;4973103;28;20542;-74
2021/12/28 08:42:14;;;;;;;4.93;1.13;;;8.90;99.90;;;;;;4973150;28;20539;-74
2021/12/28 08:44:41;;;;;;;1.03;1.03;;;8.90;99.90;;;;;;4973164;28;20543;-74
2021/12/28 08:47:08;;;;;;;1.27;1.20;;;8.90;99.90;;;;;;4972891;28;20539;-74
2021/12/28 08:49:35;;;;;;;3.33;1.10;;;9.00;99.90;;;;;;4972625;28;21145;-74
2021/12/28 08:52:03;;;;;;;1.00;1.00;;;9.00;99.90;;;;;;4972927;28;20952;-74
2021/12/28 08:54:31;;;;;;;1.03;1.00;;;9.00;99.90;;;;;;4972774;28;20488;-74
2021/12/28 08:56:58;;;;;;;0.90;0.90;;;9.00;99.90;;;;;;4972988;28;20452;-74
2021/12/28 08:59:25;;;;;;;1.10;1.03;;;9.10;99.90;;;;;;4972530;28;20542;-74
2021/12/28 09:01:55;;;;;;;2.13;1.17;;;9.10;99.90;;;;;;4973151;28;20858;-74
2021/12/28 09:04:22;;;;;;;1.17;0.97;;;9.10;99.90;;;;;;4972997;28;20475;-74
2021/12/28 09:06:50;;;;;;;1.57;1.27;;;9.10;99.90;;;;;;4972982;28;20436;-74
2021/12/28 09:09:17;;;;;;;1.13;1.03;;;9.20;99.90;;;;;;4972459;28;20586;-74
2021/12/28 09:11:45;;;;;;;2.43;0.90;;;9.20;99.90;;;;;;4972886;28;20448;-74
2021/12/28 09:14:12;;;;;;;0.90;0.90;;;9.20;99.90;;;;;;4972504;28;20550;-74
2021/12/28 09:16:39;;;;;;;0.70;0.70;;;9.30;99.90;;;;;;4972937;28;20466;-74
2021/12/28 09:19:06;;;;;;;1.73;0.80;;;9.30;99.90;;;;;;4972477;28;20940;-74
2021/12/28 09:21:33;;;;;;;0.73;0.70;;;9.30;99.90;;;;;;4972837;28;20635;-74
2021/12/28 09:24:00;;;;;;;1.00;0.90;;;9.40;99.90;;;;;;4972728;28;20478;-74
2021/12/28 09:26:27;;;;;;;0.80;0.70;;;9.40;99.90;;;;;;4972664;28;20497;-74
2021/12/28 09:28:55;;;;;;;0.73;0.73;;;9.50;99.90;;;;;;4972140;28;20587;-74
2021/12/28 09:31:22;;;;;;;1.50;1.10;;;9.50;99.90;;;;;;4972813;28;20496;-74
2021/12/28 09:33:49;;;;;;;1.00;0.90;;;9.50;99.90;;;;;;4972690;28;20559;-74
2021/12/28 09:36:16;;;;;;;0.83;0.83;;;9.60;99.90;;;;;;4972733;28;20530;-74
2021/12/28 09:38:44;;;;;;;0.83;0.83;;;9.70;99.90;;;;;;4972378;28;20543;-74
2021/12/28 09:41:11;;;;;;;0.97;0.93;;;9.70;99.90;;;;;;4972230;28;20539;-74
2021/12/28 09:43:38;;;;;;;1.50;0.87;;;9.70;99.90;;;;;;4972672;28;20563;-74
2021/12/28 09:46:07;;;;;;;1.23;0.90;;;9.70;99.90;;;;;;4972682;28;20535;-74
2021/12/28 09:48:34;;;;;;;1.00;0.90;;;9.70;99.90;;;;;;4973212;28;20986;-74
2021/12/28 09:51:02;;;;;;;0.80;0.80;;;9.70;99.90;;;;;;4975972;28;20540;-74
2021/12/28 09:53:28;;;;;;;1.47;0.80;;;9.80;99.90;;;;;;4975804;28;20539;-73
2021/12/28 09:55:56;;;;;;;1.37;0.93;;;9.70;99.90;;;;;;4975751;28;20615;-74
2021/12/28 09:58:23;;;;;;;0.93;0.93;;;9.80;99.90;;;;;;4976012;28;20531;-74
2021/12/28 10:00:50;;;;;;;0.93;0.93;;;9.80;99.90;;;;;;4975751;28;20539;-74
2021/12/28 10:03:18;;;;;;;0.90;0.90;;;9.90;99.90;;;;;;4975873;28;20467;-74
2021/12/28 10:05:45;;;;;;;0.87;0.87;;;9.90;99.90;;;;;;4975847;28;20535;-74
2021/12/28 10:08:13;;;;;;;0.80;0.80;;;9.90;99.90;;;;;;4975983;28;21023;-74
2021/12/28 10:10:43;;;;;;;0.97;0.93;;;10.00;99.90;;;;;;4975612;28;20539;-74
2021/12/28 10:13:17;;;;;;;4.13;0.90;;;9.90;99.90;;;;;;4975734;28;20554;-74
2021/12/28 10:15:46;;;;;;;1.40;1.03;;;10.00;99.90;;;;;;4975870;28;20486;-74
2021/12/28 10:18:13;;;;;;;0.80;0.80;;;10.00;99.90;;;;;;4975629;28;20535;-74
2021/12/28 10:20:44;;;;;;;1.03;0.93;;;10.00;99.90;;;;;;4975157;28;20966;-74
2021/12/28 10:23:13;;;;;;;0.83;0.83;;;10.00;99.90;;;;;;4975606;28;20475;-74
2021/12/28 10:25:43;;;;;;;2.97;1.00;;;10.10;99.90;;;;;;4975589;28;20459;-74
2021/12/28 10:28:11;;;;;;;0.80;0.80;;;10.10;99.90;;;;;;4975460;28;20531;-74
2021/12/28 10:30:41;;;;;;;1.10;0.83;;;10.10;99.90;;;;;;4975127;28;20587;-74
2021/12/28 10:33:10;;;;;;;1.20;1.10;;;10.10;99.90;;;;;;4975186;28;20559;-74
2021/12/28 10:35:40;;;;;;;1.10;1.10;;;10.10;99.90;;;;;;4975259;28;20462;-74
2021/12/28 10:38:10;;;;;;;0.97;0.93;;;10.10;99.90;;;;;;4975647;28;20871;-74
2021/12/28 10:40:40;;;;;;;1.23;1.20;;;10.20;99.90;;;;;;4975069;28;20543;-74
2021/12/28 10:43:08;;;;;;;1.17;0.90;;;10.20;99.90;;;;;;4975075;28;20522;-74
2021/12/28 10:45:38;;;;;;;1.20;1.10;;;10.20;99.90;;;;;;4975165;28;20534;-74
2021/12/28 10:48:09;;;;;;;1.10;1.00;;;10.30;99.90;;;;;;4975168;28;20452;-74
2021/12/28 10:50:39;;;;;;;1.27;0.97;;;10.30;99.90;;;;;;4974873;28;20502;-74
2021/12/28 10:53:17;;;;;;;0.80;0.80;;;10.40;99.90;;;;;;4974861;28;20543;-74
2021/12/28 10:55:46;;;;;;;2.47;0.90;;;10.40;99.90;;;;;;4975016;28;20463;-74
2021/12/28 10:58:26;;;;;;;0.80;0.80;;;10.40;99.90;;;;;;4974715;28;20542;-74
2021/12/28 11:00:54;;;;;;;0.90;0.90;;;10.50;99.90;;;;;;4974014;28;20539;-74
2021/12/28 11:03:30;;;;;;;0.73;0.70;;;10.50;99.90;;;;;;4974893;28;20810;-73
2021/12/28 11:05:58;;;;;;;0.87;0.87;;;10.60;99.90;;;;;;4975285;28;20862;-73
2021/12/28 11:08:29;;;;;;;1.50;1.00;;;10.60;99.90;;;;;;4974695;28;20884;-74
2021/12/28 11:11:01;;;;;;;0.80;0.80;;;10.60;99.90;;;;;;4974401;28;20502;-74
2021/12/28 11:13:30;;;;;;;0.93;0.93;;;10.60;99.90;;;;;;4974416;28;20499;-74
2021/12/28 11:15:57;;;;;;;1.03;0.90;;;10.60;99.90;;;;;;4974640;28;20487;-74
2021/12/28 11:18:29;;;;;;;0.80;0.70;;;10.70;99.90;;;;;;4974351;28;20955;-74
2021/12/28 11:20:56;;;;;;;0.97;0.97;;;10.70;99.90;;;;;;4974432;28;20451;-74
2021/12/28 11:23:24;;;;;;;1.43;1.33;;;10.80;99.90;;;;;;4974069;28;20920;-74
2021/12/28 11:26:08;;;;;;;1.10;1.00;;;10.80;99.90;;;;;;4974449;28;20534;-74
2021/12/28 11:28:36;;;;;;;1.10;1.00;;;10.80;99.90;;;;;;4974148;28;21007;-74
2021/12/28 11:31:11;;;;;;;1.03;0.90;;;10.90;99.90;;;;;;4974161;28;20530;-74
2021/12/28 11:33:50;;;;;;;0.90;0.90;;;10.90;99.90;;;;;;4974014;28;20550;-74
2021/12/28 11:36:18;;;;;;;1.33;1.10;;;10.90;99.90;;;;;;4974142;28;20538;-74
2021/12/28 11:38:46;;;;;;;2.20;1.67;;;10.80;99.90;;;;;;4974137;28;20458;-74
2021/12/28 11:41:14;;;;;;;2.50;1.77;;;10.90;99.90;;;;;;4973852;28;20535;-74
2021/12/28 11:43:42;;;;;;;1.57;1.43;;;10.80;99.90;;;;;;4973917;28;20562;-74
2021/12/28 11:46:10;;;;;;;1.40;1.30;;;10.90;99.90;;;;;;4973819;28;20523;-74
2021/12/28 11:48:37;;;;;;;1.20;1.07;;;10.90;99.90;;;;;;4973999;28;20488;-74
2021/12/28 11:51:05;;;;;;;1.27;1.20;;;10.90;99.90;;;;;;4973859;28;20487;-74
2021/12/28 11:53:36;;;;;;;2.27;1.50;;;10.90;99.90;;;;;;4973760;28;20588;-74
2021/12/28 11:59:01;;;;;;;1.93;1.37;;;10.90;99.90;;;;;;4952832;29;20527;-76
2021/12/28 12:01:54;;;;;;;1.60;1.50;;;10.90;99.90;;;;;;4954655;29;20484;-76
2021/12/28 12:04:56;;;;;;;1.50;1.40;;;11.00;99.90;;;;;;4954266;29;21028;-76
2021/12/28 12:07:39;;;;;;;1.90;1.50;;;11.00;99.90;;;;;;4954497;29;20476;-76
2021/12/28 12:10:31;;;;;;;1.70;1.50;;;10.90;99.90;;;;;;4954232;28;20496;-76
2021/12/28 12:13:06;;;;;;;1.97;1.50;;;11.00;99.90;;;;;;4953519;28;20455;-76
2021/12/28 12:15:41;;;;;;;2.43;1.50;;;11.00;99.90;;;;;;4954219;28;20468;-76
2021/12/28 12:18:12;;;;;;;1.67;1.47;;;11.00;99.90;;;;;;4954251;28;20476;-76
2021/12/28 12:20:40;;;;;;;1.60;1.50;;;11.00;99.90;;;;;;4953919;28;20457;-76
2021/12/28 12:23:19;;;;;;;1.63;1.30;;;11.00;99.90;;;;;;4954120;28;20532;-76
2021/12/28 12:25:59;;;;;;;1.10;1.00;;;11.00;99.90;;;;;;4954420;28;20456;-77
2021/12/28 12:28:43;;;;;;;1.83;1.13;;;11.00;99.90;;;;;;4954143;28;20477;-76
2021/12/28 12:31:21;;;;;;;1.20;1.10;;;11.10;99.90;;;;;;4953987;28;20492;-76
2021/12/28 12:33:48;;;;;;;1.77;1.33;;;11.10;99.90;;;;;;4954453;28;20480;-77
2021/12/28 12:36:22;;;;;;;1.30;1.00;;;11.10;99.90;;;;;;4953655;29;20824;-76
2021/12/28 12:38:50;;;;;;;1.70;1.20;;;11.10;99.90;;;;;;4954279;28;20570;-76
2021/12/28 12:41:20;;;;;;;1.20;1.10;;;11.20;99.90;;;;;;4954077;28;20453;-76
2021/12/28 12:43:51;;;;;;;0.90;0.90;;;11.20;99.90;;;;;;4954148;28;20543;-76
2021/12/28 12:46:24;;;;;;;1.73;1.00;;;11.10;99.90;;;;;;4953617;29;20464;-76
2021/12/28 12:49:20;;;;;;;1.23;1.13;;;11.20;99.90;;;;;;4953872;29;20558;-76
2021/12/28 12:51:50;;;;;;;4.73;2.10;;;11.20;99.90;;;;;;4953759;28;20452;-77
2021/12/28 12:54:26;;;;;;;3.57;2.37;;;11.30;99.90;;;;;;4953766;28;20507;-76
2021/12/28 12:57:08;;;;;;;3.10;1.97;;;11.30;99.90;;;;;;4953532;28;20563;-77
2021/12/28 12:59:51;;;;;;;2.80;1.67;;;11.30;99.90;;;;;;4953499;28;20544;-75
2021/12/28 13:02:35;;;;;;;1.50;1.30;;;11.40;99.90;;;;;;4953852;28;20475;-75
2021/12/28 13:05:14;;;;;;;4.63;1.40;;;11.30;99.90;;;;;;4953823;28;20831;-75
2021/12/28 13:07:42;;;;;;;3.00;1.60;;;11.30;99.90;;;;;;4953472;28;20587;-75
2021/12/28 13:10:15;;;;;;;1.70;1.60;;;11.30;99.90;;;;;;4953423;28;21044;-75
2021/12/28 13:12:44;;;;;;;6.00;1.77;;;11.30;99.90;;;;;;4953711;28;20516;-76
2021/12/28 13:15:12;;;;;;;1.73;1.47;;;11.20;99.90;;;;;;4953680;28;20457;-75
2021/12/28 13:17:43;;;;;;;1.27;1.17;;;11.30;99.90;;;;;;4953443;28;20931;-76
2021/12/28 13:20:19;;;;;;;1.37;1.27;;;11.20;99.90;;;;;;4953625;28;20499;-75
2021/12/28 13:22:50;;;;;;;2.77;1.10;;;11.20;99.90;;;;;;4953625;28;20511;-75
2021/12/28 13:25:23;;;;;;;1.50;1.40;;;11.20;99.90;;;;;;4957509;28;20543;-76
2021/12/28 13:27:50;;;;;;;1.73;1.30;;;11.10;99.90;;;;;;4957192;28;20996;-76
2021/12/28 13:30:22;;;;;;;1.27;1.17;;;11.10;99.90;;;;;;4956863;28;20496;-75
2021/12/28 13:32:53;;;;;;;2.87;1.33;;;11.10;99.90;;;;;;4957367;28;20547;-75
2021/12/28 13:35:22;;;;;;;1.53;1.20;;;11.10;99.90;;;;;;4957578;28;20456;-75
2021/12/28 13:37:51;;;;;;;1.33;1.20;;;11.10;99.90;;;;;;4957158;28;20567;-75
2021/12/28 13:40:22;;;;;;;4.70;2.20;;;11.20;99.90;;;;;;4956798;28;20543;-75
2021/12/28 13:43:02;;;;;;;3.47;2.30;;;11.20;99.90;;;;;;4957076;28;20563;-76
2021/12/28 13:45:32;;;;;;;2.97;2.67;;;11.20;99.90;;;;;;4957164;28;20539;-75
2021/12/28 13:48:04;;;;;;;1.80;1.70;;;11.20;99.90;;;;;;4957008;28;20555;-75
2021/12/28 13:50:31;;;;;;;2.10;1.90;;;11.20;99.90;;;;;;4956883;28;20944;-74
2021/12/28 13:53:00;;;;;;;4.43;2.37;;;11.20;99.90;;;;;;4956834;28;20547;-75
2021/12/28 13:55:30;;;;;;;2.20;2.00;;;11.20;99.90;;;;;;4956670;28;20459;-75
2021/12/28 13:57:58;;;;;;;2.27;2.13;;;11.20;99.90;;;;;;4956777;28;20577;-75
2021/12/28 14:00:27;;;;;;;2.70;2.10;;;11.20;99.90;;;;;;4956732;28;20897;-75
2021/12/28 14:02:57;;;;;;;2.40;1.90;;;11.20;99.90;;;;;;4956635;28;20547;-76
2021/12/28 14:05:26;;;;;;;3.10;1.80;;;11.30;99.90;;;;;;4956658;28;20525;-75
2021/12/28 14:07:54;;;;;;;3.13;2.70;;;11.20;99.90;;;;;;4957071;28;20473;-75
2021/12/28 14:10:21;;;;;;;6.43;2.63;;;11.20;99.90;;;;;;4956533;28;20502;-75
2021/12/28 14:13:07;;;;;;;2.80;2.50;;;11.20;99.90;;;;;;4956810;29;20552;-75
2021/12/28 14:15:51;;;;;;;2.80;2.50;;;11.30;99.90;;;;;;4956936;28;20527;-76
2021/12/28 14:18:32;;;;;;;4.70;3.93;;;11.30;99.90;;;;;;4957445;28;20512;-75
2021/12/28 14:21:15;;;;;;;4.73;3.77;;;11.30;99.90;;;;;;4957243;28;20900;-75
2021/12/28 14:23:43;;;;;;;2.27;2.07;;;11.30;99.90;;;;;;4956966;28;20477;-75
2021/12/28 14:26:14;;;;;;;3.53;2.80;;;11.30;99.90;;;;;;4956125;28;20537;-75
2021/12/28 14:28:42;;;;;;;6.00;4.20;;;11.30;99.90;;;;;;4955804;28;20472;-75
2021/12/28 14:31:15;;;;;;;4.40;2.00;;;11.30;99.90;;;;;;4955974;28;20494;-75
2021/12/28 14:33:47;;;;;;;2.47;1.67;;;11.30;99.90;;;;;;4956000;28;20898;-75
2021/12/28 14:36:15;;;;;;;3.07;1.60;;;11.30;99.90;;;;;;4955082;28;20532;-75
2021/12/28 14:38:42;;;;;;;2.03;1.43;;;11.30;99.90;;;;;;4955859;28;20453;-75
2021/12/28 14:41:27;;;;;;;2.40;1.53;;;11.30;99.90;;;;;;4955838;28;20573;-75
2021/12/28 14:44:10;;;;;;;2.10;1.40;;;11.30;99.90;;;;;;4955891;28;20495;-75
2021/12/28 14:46:38;;;;;;;2.30;1.80;;;11.20;99.90;;;;;;4956082;28;20563;-75
2021/12/28 14:49:18;;;;;;;1.50;1.40;;;11.30;99.90;;;;;;4955678;28;20461;-76
2021/12/28 14:51:48;;;;;;;1.40;1.30;;;11.30;99.90;;;;;;4955511;29;20587;-76
2021/12/28 14:54:16;;;;;;;2.70;1.50;;;11.20;99.90;;;;;;4955793;28;20461;-75
2021/12/28 14:56:44;;;;;;;3.33;1.13;;;11.20;99.90;;;;;;4955784;28;20567;-76
2021/12/28 14:59:18;;;;;;;4.43;1.43;;;11.20;99.90;;;;;;4955547;28;20547;-75
2021/12/28 15:01:46;;;;;;;1.80;1.10;;;11.20;99.90;;;;;;4955878;28;20540;-75
2021/12/28 15:04:14;;;;;;;3.43;1.63;;;11.10;99.90;;;;;;4955261;28;20481;-75
2021/12/28 15:06:54;;;;;;;2.93;1.20;;;11.10;99.90;;;;;;4955531;28;20477;-75
2021/12/28 15:09:34;;;;;;;2.27;1.23;;;11.00;99.90;;;;;;4955084;28;20968;-75
2021/12/28 15:12:04;;;;;;;4.37;1.50;;;11.00;99.90;;;;;;4955355;28;20946;-75
2021/12/28 15:14:31;;;;;;;2.80;1.40;;;11.00;99.90;;;;;;4955103;28;20965;-75
2021/12/28 15:17:01;;;;;;;4.50;1.40;;;11.00;99.90;;;;;;4955591;28;20572;-77
2021/12/28 15:19:30;;;;;;;4.50;1.80;;;10.60;99.90;;;;;;4954687;28;20985;-76
2021/12/28 15:21:59;;;;;;;10.93;3.80;;;9.90;99.90;;;;;;4955229;28;20512;-76
2021/12/28 15:24:26;;;;;;;14.57;4.30;;;9.40;99.90;;;;;;4955182;28;20496;-75
2021/12/28 15:26:54;;;;;;;7.10;2.50;;;8.90;99.90;;;;;;4954995;28;20504;-75
2021/12/28 15:29:23;;;;;;;6.07;2.50;;;8.50;99.90;;;;;;4954639;28;20540;-75
2021/12/28 15:31:52;;;;;;;13.07;2.53;;;8.40;99.90;;;;;;4955012;29;20547;-75
2021/12/28 15:34:22;;;;;;;6.70;2.50;;;8.40;99.90;;;;;;4955145;28;20492;-75
2021/12/28 15:36:49;;;;;;;11.20;4.10;;;8.30;99.90;;;;;;4955252;28;20481;-75
2021/12/28 15:39:19;;;;;;;11.40;4.63;;;8.10;99.90;;;;;;4954705;28;20463;-75
2021/12/28 15:41:48;;;;;;;15.60;5.40;;;8.00;99.90;;;;;;4954586;28;20512;-75
2021/12/28 15:44:15;;;;;;;19.20;3.00;;;8.10;99.90;;;;;;4954977;28;20492;-75
2021/12/28 15:46:43;;;;;;;6.53;1.60;;;8.10;99.90;;;;;;4954587;28;20560;-75
2021/12/28 15:49:12;;;;;;;4.27;2.33;;;8.10;99.90;;;;;;4954593;28;20535;-75
2021/12/28 15:51:39;;;;;;;10.70;2.93;;;8.00;99.90;;;;;;4954493;28;20496;-75
2021/12/28 15:54:09;;;;;;;13.90;2.77;;;8.00;99.90;;;;;;4954326;29;20555;-76
2021/12/28 15:56:38;;;;;;;8.60;2.23;;;8.00;99.90;;;;;;4954592;28;20485;-76
2021/12/28 15:59:06;;;;;;;8.00;2.87;;;8.00;99.90;;;;;;4954464;28;20484;-76
2021/12/28 16:01:34;;;;;;;12.43;2.63;;;8.00;99.90;;;;;;4954514;28;20548;-76
2021/12/28 16:04:01;;;;;;;9.50;2.00;;;8.10;99.90;;;;;;4954860;28;20495;-76
2021/12/28 16:06:28;;;;;;;5.37;1.87;;;8.00;99.90;;;;;;4954302;28;20479;-75
2021/12/28 16:08:55;;;;;;;9.83;2.77;;;8.00;99.90;;;;;;4954075;28;20457;-75
2021/12/28 16:11:24;;;;;;;8.20;2.37;;;8.10;99.90;;;;;;4954507;28;20605;-75
2021/12/28 16:13:53;;;;;;;12.53;2.87;;;8.10;99.90;;;;;;4954180;28;20457;-75
2021/12/28 16:16:21;;;;;;;18.10;4.37;;;8.10;99.90;;;;;;4954498;28;20899;-75
2021/12/28 16:18:49;;;;;;;5.73;2.00;;;8.20;99.90;;;;;;4954310;28;20799;-75
2021/12/28 16:21:17;;;;;;;8.77;2.50;;;8.20;99.90;;;;;;4953976;28;20481;-75
2021/12/28 16:23:45;;;;;;;8.57;2.50;;;8.20;99.90;;;;;;4954586;28;20465;-75
2021/12/28 16:26:13;;;;;;;10.67;3.17;;;8.30;99.90;;;;;;4954004;28;20488;-75
2021/12/28 16:28:40;;;;;;;3.80;2.20;;;8.30;99.90;;;;;;4953925;28;20463;-76
2021/12/28 16:31:08;;;;;;;10.87;2.30;;;8.30;99.90;;;;;;4954263;28;20580;-76
2021/12/28 16:33:36;;;;;;;9.30;2.23;;;8.40;99.90;;;;;;4953930;28;20496;-76
2021/12/28 16:36:06;;;;;;;6.47;2.17;;;8.30;99.90;;;;;;4954128;28;20456;-76
2021/12/28 16:38:33;;;;;;;10.40;2.07;;;8.30;99.90;;;;;;4954094;28;20464;-75
2021/12/28 16:41:01;;;;;;;6.73;1.93;;;8.20;99.90;;;;;;4953639;28;20814;-76
2021/12/28 16:43:28;;;;;;;8.20;2.10;;;8.20;99.90;;;;;;4953818;28;20543;-76
2021/12/28 16:45:55;;;;;;;17.70;3.67;;;8.10;99.90;;;;;;4953905;29;21007;-76
2021/12/28 16:48:24;;;;;;;4.93;2.50;;;8.10;99.90;;;;;;4953547;28;20559;-76
2021/12/28 16:50:51;;;;;;;6.23;1.93;;;8.00;99.90;;;;;;4953761;28;20547;-76
2021/12/28 16:53:18;;;;;;;6.40;1.90;;;8.00;99.90;;;;;;4954126;29;20539;-77
2021/12/28 16:55:46;;;;;;;6.03;2.03;;;8.00;99.90;;;;;;4954060;28;20456;-76
2021/12/28 16:58:13;;;;;;;2.17;1.33;;;7.90;99.90;;;;;;4955319;28;20579;-76
2021/12/28 17:00:40;;;;;;;4.73;1.43;;;7.80;99.90;;;;;;4959536;28;20920;-76
2021/12/28 17:03:08;;;;;;;8.00;1.63;;;7.80;99.90;;;;;;4960005;28;20545;-76
2021/12/28 17:05:36;;;;;;;4.80;1.30;;;7.80;99.90;;;;;;4959743;28;20773;-76
2021/12/28 17:08:05;;;;;;;6.83;2.20;;;7.80;99.90;;;;;;4957460;28;20555;-76
2021/12/28 17:10:35;;;;;;;7.13;2.10;;;7.70;99.90;;;;;;4948337;29;20450;-76
2021/12/28 17:13:02;;;;;;;3.17;1.60;;;7.70;99.90;;;;;;4950964;28;20641;-76
2021/12/28 17:15:29;;;;;;;3.73;1.90;;;7.70;99.90;;;;;;4949317;28;21010;-76
2021/12/28 17:17:56;;;;;;;5.33;2.17;;;7.70;99.90;;;;;;4952925;28;20556;-76
2021/12/28 17:20:23;;;;;;;6.43;2.37;;;7.70;99.90;;;;;;4960010;28;20484;-76
2021/12/28 17:22:52;;;;;;;4.30;1.67;;;7.70;99.90;;;;;;4960307;28;20547;-75
2021/12/28 17:25:19;;;;;;;4.93;2.10;;;7.70;99.90;;;;;;4959878;28;20489;-76
2021/12/28 17:27:46;;;;;;;9.67;2.40;;;7.60;99.90;;;;;;4958872;28;20571;-76
2021/12/28 17:30:13;;;;;;;5.57;2.30;;;7.60;99.90;;;;;;4958784;28;20483;-76
2021/12/28 17:32:40;;;;;;;7.40;3.37;;;7.60;99.90;;;;;;4958889;28;21083;-76
2021/12/28 17:35:08;;;;;;;6.57;3.00;;;7.60;99.90;;;;;;4958806;28;20491;-75
2021/12/28 17:37:36;;;;;;;6.73;2.77;;;7.60;99.90;;;;;;4958847;28;20487;-75
2021/12/28 17:40:06;;;;;;;8.30;2.70;;;7.60;99.90;;;;;;4958838;28;20879;-76
2021/12/28 17:42:34;;;;;;;6.03;2.20;;;7.60;99.90;;;;;;4958923;28;20463;-75
2021/12/28 17:45:01;;;;;;;6.13;2.20;;;7.70;99.90;;;;;;4959053;28;20456;-75
2021/12/28 17:47:29;;;;;;;4.50;2.30;;;7.70;99.90;;;;;;4958808;28;20500;-75
2021/12/28 17:49:57;;;;;;;7.70;2.23;;;7.70;99.90;;;;;;4958656;28;20485;-76
2021/12/28 17:52:24;;;;;;;3.27;2.00;;;7.70;99.90;;;;;;4958865;28;20583;-76
2021/12/28 17:54:51;;;;;;;5.67;2.50;;;7.80;99.90;;;;;;4958822;28;20953;-75
2021/12/28 17:57:21;;;;;;;4.97;2.10;;;7.80;99.90;;;;;;4988177;23;20594;-71
2021/12/28 17:59:48;;;;;;;4.10;2.10;;;7.80;99.90;;;;;;4977821;28;20495;-70